createdAt,value
2018-12-25T00:00:48.278Z,82.70
2018-12-25T00:03:16.638Z,82.50
2018-12-25T00:05:45.034Z,82.50
2018-12-25T00:08:13.406Z,82.40
2018-12-25T00:10:41.898Z,82.00
2018-12-25T00:13:10.258Z,83.00
2018-12-25T00:15:38.654Z,82.40
2018-12-25T00:18:07.013Z,82.50
2018-12-25T00:20:35.331Z,83.10
2018-12-25T00:23:03.706Z,83.00
2018-12-25T00:25:32.104Z,83.00
2018-12-25T00:28:00.470Z,83.00
2018-12-25T00:30:28.992Z,82.80
2018-12-25T00:32:57.351Z,83.00
2018-12-25T00:35:25.738Z,84.00
2018-12-25T00:37:54.104Z,84.00
2018-12-25T00:40:22.542Z,83.30
2018-12-25T00:42:50.903Z,83.20
2018-12-25T00:45:19.299Z,83.00
2018-12-25T00:47:47.746Z,83.10
2018-12-25T00:50:16.186Z,82.80
2018-12-25T00:52:44.554Z,83.20
2018-12-25T00:55:12.871Z,83.80
2018-12-25T00:57:41.246Z,84.20
2018-12-25T01:00:09.710Z,84.40
2018-12-25T01:02:38.074Z,83.50
2018-12-25T01:05:06.474Z,83.40
2018-12-25T01:07:34.852Z,83.80
2018-12-25T01:10:03.263Z,83.10
2018-12-25T01:12:31.628Z,84.00
2018-12-25T01:15:00.006Z,84.30
2018-12-25T01:17:28.402Z,84.00
2018-12-25T01:19:56.766Z,84.00
2018-12-25T01:22:25.159Z,84.20
2018-12-25T01:24:53.524Z,84.40
2018-12-25T01:27:21.923Z,85.20
2018-12-25T01:29:50.289Z,85.10
2018-12-25T01:32:18.687Z,85.70
2018-12-25T01:34:47.057Z,85.90
2018-12-25T01:37:15.452Z,85.90
2018-12-25T01:39:43.814Z,85.70
2018-12-25T01:42:12.304Z,86.00
2018-12-25T01:44:40.684Z,87.30
2018-12-25T01:47:09.079Z,87.50
2018-12-25T01:49:37.442Z,86.80
2018-12-25T01:52:05.838Z,87.50
2018-12-25T01:54:34.374Z,88.60
2018-12-25T01:57:02.769Z,89.10
2018-12-25T01:59:31.132Z,88.30
2018-12-25T02:01:59.448Z,88.30
2018-12-25T02:04:27.742Z,89.90
2018-12-25T02:06:56.139Z,90.00
2018-12-25T02:09:24.505Z,90.00
2018-12-25T02:11:52.908Z,90.40
2018-12-25T02:14:21.290Z,90.00
2018-12-25T02:16:49.686Z,90.10
2018-12-25T02:19:18.050Z,90.20
2018-12-25T02:21:46.382Z,90.40
2018-12-25T02:24:14.685Z,90.10
2018-12-25T02:26:43.093Z,90.60
2018-12-25T02:29:11.459Z,90.70
2018-12-25T02:31:39.854Z,90.20
2018-12-25T02:34:08.226Z,90.40
2018-12-25T02:36:36.625Z,90.30
2018-12-25T02:39:07.240Z,90.00
2018-12-25T02:41:35.674Z,89.80
2018-12-25T02:44:04.084Z,90.40
2018-12-25T02:46:32.712Z,90.50
2018-12-25T02:49:01.113Z,90.80
2018-12-25T02:51:29.479Z,90.90
2018-12-25T02:53:57.933Z,90.50
2018-12-25T02:56:26.313Z,90.50
2018-12-25T02:58:54.719Z,90.50
2018-12-25T03:01:23.086Z,90.60
2018-12-25T03:03:51.493Z,90.20
2018-12-25T03:06:19.855Z,90.30
2018-12-25T03:08:48.258Z,89.40
2018-12-25T03:11:16.626Z,89.90
2018-12-25T03:13:45.021Z,90.20
2018-12-25T03:16:13.437Z,89.40
2018-12-25T03:18:41.760Z,89.30
2018-12-25T03:21:10.143Z,89.30
2018-12-25T03:23:38.541Z,90.00
2018-12-25T03:26:06.925Z,90.10
2018-12-25T03:28:35.329Z,90.00
2018-12-25T03:31:03.702Z,90.80
2018-12-25T03:33:32.094Z,90.80
2018-12-25T03:36:00.470Z,90.80
2018-12-25T03:38:28.932Z,90.80
2018-12-25T03:40:57.225Z,90.70
2018-12-25T03:43:25.721Z,90.60
2018-12-25T03:45:54.094Z,90.40
2018-12-25T03:48:22.493Z,90.60
2018-12-25T03:50:50.871Z,90.60
2018-12-25T03:53:19.266Z,90.80
2018-12-25T03:55:47.647Z,90.30
2018-12-25T03:58:16.061Z,90.50
2018-12-25T04:00:44.421Z,90.30
2018-12-25T04:03:12.787Z,90.40
2018-12-25T04:05:41.226Z,90.40
2018-12-25T04:08:09.595Z,90.20
2018-12-25T04:10:37.993Z,90.40
2018-12-25T04:13:06.293Z,90.40
2018-12-25T04:15:34.699Z,90.40
2018-12-25T04:18:03.069Z,90.40
2018-12-25T04:20:31.462Z,90.30
2018-12-25T04:22:59.836Z,90.20
2018-12-25T04:25:28.242Z,90.20
2018-12-25T04:27:56.605Z,90.20
2018-12-25T04:30:24.898Z,89.60
2018-12-25T04:32:53.302Z,89.50
2018-12-25T04:35:21.666Z,90.00
2018-12-25T04:37:50.075Z,90.00
2018-12-25T04:40:18.455Z,89.80
2018-12-25T04:42:46.810Z,90.00
2018-12-25T04:45:15.201Z,90.00
2018-12-25T04:47:43.565Z,90.00
2018-12-25T04:50:11.969Z,90.00
2018-12-25T04:52:40.339Z,89.60
2018-12-25T04:55:08.730Z,89.90
2018-12-25T04:57:37.101Z,90.00
2018-12-25T05:00:06.505Z,90.00
2018-12-25T05:02:34.794Z,90.10
2018-12-25T05:05:03.214Z,90.40
2018-12-25T05:07:31.581Z,90.20
2018-12-25T05:09:59.912Z,90.00
2018-12-25T05:12:28.289Z,90.10
2018-12-25T05:14:56.693Z,90.00
2018-12-25T05:17:25.070Z,90.20
2018-12-25T05:19:53.445Z,90.00
2018-12-25T05:22:21.841Z,89.00
2018-12-25T05:24:50.305Z,89.60
2018-12-25T05:27:18.698Z,89.40
2018-12-25T05:29:47.072Z,89.70
2018-12-25T05:32:15.475Z,88.80
2018-12-25T05:34:43.837Z,88.60
2018-12-25T05:37:12.249Z,88.80
2018-12-25T05:39:40.613Z,89.00
2018-12-25T05:42:08.985Z,89.20
2018-12-25T05:44:37.382Z,90.10
2018-12-25T05:47:05.827Z,88.70
2018-12-25T05:49:34.237Z,88.70
2018-12-25T05:52:02.607Z,88.60
2018-12-25T05:54:30.973Z,88.90
2018-12-25T05:56:59.379Z,89.70
2018-12-25T05:59:27.819Z,88.40
2018-12-25T06:01:56.141Z,89.50
2018-12-25T06:04:24.505Z,89.70
2018-12-25T06:06:52.977Z,89.70
2018-12-25T06:09:21.421Z,88.90
2018-12-25T06:11:49.813Z,89.20
2018-12-25T06:14:18.177Z,88.60
2018-12-25T06:16:46.573Z,88.90
2018-12-25T06:19:14.949Z,87.70
2018-12-25T06:21:43.361Z,87.90
2018-12-25T06:24:11.729Z,88.20
2018-12-25T06:26:40.169Z,88.50
2018-12-25T06:29:08.583Z,87.60
2018-12-25T06:31:37.026Z,88.00
2018-12-25T06:34:05.429Z,88.10
2018-12-25T06:36:33.797Z,87.50
2018-12-25T06:39:02.199Z,87.80
2018-12-25T06:41:30.563Z,86.70
2018-12-25T06:43:58.993Z,86.10
2018-12-25T06:46:27.361Z,86.40
2018-12-25T06:48:55.727Z,86.50
2018-12-25T06:51:24.124Z,86.60
2018-12-25T06:53:52.532Z,85.60
2018-12-25T06:56:20.893Z,85.00
2018-12-25T06:58:49.229Z,86.20
2018-12-25T07:01:17.601Z,84.50
2018-12-25T07:03:45.921Z,84.60
2018-12-25T07:06:14.212Z,85.60
2018-12-25T07:08:42.733Z,85.40
2018-12-25T07:11:11.029Z,84.60
2018-12-25T07:13:39.431Z,84.00
2018-12-25T07:16:07.839Z,85.30
2018-12-25T07:18:36.241Z,84.90
2018-12-25T07:21:11.945Z,85.00
2018-12-25T07:23:34.651Z,85.30
2018-12-25T07:26:03.020Z,85.00
2018-12-25T07:28:31.340Z,84.80
2018-12-25T07:30:59.635Z,85.20
2018-12-25T07:33:28.047Z,85.50
2018-12-25T07:35:56.412Z,85.10
2018-12-25T07:38:24.803Z,85.60
2018-12-25T07:40:53.185Z,86.20
2018-12-25T07:43:21.583Z,84.90
2018-12-25T07:45:49.945Z,85.10
2018-12-25T07:48:18.338Z,85.00
2018-12-25T07:50:46.643Z,84.60
2018-12-25T07:53:15.039Z,85.10
2018-12-25T07:55:43.479Z,85.40
2018-12-25T07:58:11.939Z,85.90
2018-12-25T08:00:40.305Z,84.80
2018-12-25T08:03:08.699Z,84.60
2018-12-25T08:05:37.066Z,84.30
2018-12-25T08:08:05.523Z,84.30
2018-12-25T08:10:33.923Z,85.10
2018-12-25T08:13:02.398Z,84.50
2018-12-25T08:15:30.791Z,84.60
2018-12-25T08:17:59.156Z,83.50
2018-12-25T08:20:27.567Z,84.20
2018-12-25T08:23:02.560Z,84.30
2018-12-25T08:25:25.901Z,85.10
2018-12-25T08:27:54.275Z,84.40
2018-12-25T08:30:22.674Z,86.40
2018-12-25T08:32:51.053Z,85.60
2018-12-25T08:35:19.432Z,86.00
2018-12-25T08:37:47.742Z,85.20
2018-12-25T08:40:16.124Z,85.60
2018-12-25T08:42:44.436Z,86.60
2018-12-25T08:45:12.857Z,86.60
2018-12-25T08:47:41.227Z,85.10
2018-12-25T08:50:11.171Z,86.10
2018-12-25T08:52:39.532Z,84.90
2018-12-25T08:55:07.923Z,86.10
2018-12-25T08:57:36.360Z,85.30
2018-12-25T09:00:08.015Z,84.30
2018-12-25T09:02:36.587Z,84.20
2018-12-25T09:05:05.045Z,84.30
2018-12-25T09:07:33.453Z,84.70
2018-12-25T09:10:01.800Z,84.70
2018-12-25T09:12:30.184Z,85.10
2018-12-25T09:14:58.572Z,84.50
2018-12-25T09:17:26.864Z,83.40
2018-12-25T09:19:55.273Z,83.90
2018-12-25T09:22:23.565Z,83.30
2018-12-25T09:24:51.968Z,84.00
2018-12-25T09:27:20.325Z,84.70
2018-12-25T09:29:48.663Z,84.80
2018-12-25T09:32:17.029Z,83.80
2018-12-25T09:34:45.405Z,82.70
2018-12-25T09:37:13.803Z,82.80
2018-12-25T09:39:42.273Z,82.50
2018-12-25T09:42:10.623Z,82.40
2018-12-25T09:44:38.989Z,83.10
2018-12-25T09:47:07.405Z,82.30
2018-12-25T09:49:35.784Z,82.90
2018-12-25T09:52:04.202Z,83.30
2018-12-25T09:54:32.570Z,83.40
2018-12-25T09:57:00.975Z,84.00
2018-12-25T09:59:29.338Z,82.80
2018-12-25T10:01:57.818Z,83.00
2018-12-25T10:04:26.223Z,83.80
2018-12-25T10:06:54.624Z,84.00
2018-12-25T10:09:22.995Z,83.20
2018-12-25T10:11:51.405Z,83.10
2018-12-25T10:14:19.781Z,82.40
2018-12-25T10:16:49.838Z,82.60
2018-12-25T10:19:18.361Z,82.70
2018-12-25T10:21:46.769Z,82.00
2018-12-25T10:24:15.145Z,82.10
2018-12-25T10:26:43.538Z,82.00
2018-12-25T10:29:11.913Z,82.80
2018-12-25T10:31:40.311Z,82.10
2018-12-25T10:34:08.672Z,81.70
2018-12-25T10:36:37.074Z,83.40
2018-12-25T10:39:06.337Z,82.60
2018-12-25T10:41:34.691Z,82.70
2018-12-25T10:44:03.049Z,82.50
2018-12-25T10:46:31.376Z,83.50
2018-12-25T10:48:59.753Z,83.90
2018-12-25T10:51:28.140Z,83.70
2018-12-25T10:53:56.519Z,83.60
2018-12-25T10:56:24.921Z,83.70
2018-12-25T10:58:53.290Z,83.50
2018-12-25T11:01:21.652Z,83.60
2018-12-25T11:03:49.982Z,83.60
2018-12-25T11:06:18.341Z,83.30
2018-12-25T11:08:46.866Z,82.90
2018-12-25T11:11:15.213Z,81.70
2018-12-25T11:13:43.609Z,82.00
2018-12-25T11:16:11.983Z,82.10
2018-12-25T11:18:40.383Z,82.30
2018-12-25T11:21:08.745Z,81.80
2018-12-25T11:23:37.186Z,82.70
2018-12-25T11:26:05.565Z,81.90
2018-12-25T11:28:33.973Z,82.90
2018-12-25T11:31:02.333Z,82.70
2018-12-25T11:33:30.735Z,82.80
2018-12-25T11:35:59.113Z,82.90
2018-12-25T11:38:27.511Z,82.70
2018-12-25T11:40:55.874Z,82.20
2018-12-25T11:43:24.274Z,82.20
2018-12-25T11:45:52.573Z,82.30
2018-12-25T11:48:20.974Z,82.50
2018-12-25T11:50:49.391Z,82.90
2018-12-25T11:53:17.791Z,83.20
2018-12-25T11:55:46.159Z,82.80
2018-12-25T11:58:14.557Z,82.20
2018-12-25T12:00:42.963Z,82.40
2018-12-25T12:03:11.356Z,82.40
2018-12-25T12:05:39.701Z,82.20
2018-12-25T12:08:08.101Z,84.80
2018-12-25T12:10:36.480Z,84.80
2018-12-25T12:13:04.925Z,82.70
2018-12-25T12:15:33.289Z,83.60
2018-12-25T12:18:01.610Z,83.70
2018-12-25T12:20:29.991Z,83.80
2018-12-25T12:22:58.363Z,83.40
2018-12-25T12:25:26.770Z,83.00
2018-12-25T12:27:55.165Z,83.50
2018-12-25T12:30:23.565Z,83.10
2018-12-25T12:32:51.857Z,83.10
2018-12-25T12:35:20.291Z,83.80
2018-12-25T12:37:48.638Z,84.00
2018-12-25T12:40:17.043Z,83.80
2018-12-25T12:42:45.406Z,83.20
2018-12-25T12:45:13.803Z,83.20
2018-12-25T12:47:42.169Z,83.10
2018-12-25T12:50:10.491Z,82.40
2018-12-25T12:52:45.377Z,82.80
2018-12-25T12:55:08.910Z,83.40
2018-12-25T12:57:37.349Z,84.00
2018-12-25T13:00:07.394Z,83.80
2018-12-25T13:02:35.711Z,83.70
2018-12-25T13:05:06.139Z,83.50
2018-12-25T13:07:34.504Z,84.20
2018-12-25T13:10:02.969Z,83.30
2018-12-25T13:12:31.343Z,84.30
2018-12-25T13:14:59.734Z,83.70
2018-12-25T13:17:28.105Z,83.90
2018-12-25T13:19:56.422Z,84.60
2018-12-25T13:22:24.785Z,84.30
2018-12-25T13:24:53.117Z,84.70
2018-12-25T13:27:21.659Z,85.20
2018-12-25T13:29:50.406Z,83.80
2018-12-25T13:32:18.818Z,84.30
2018-12-25T13:34:47.241Z,85.10
2018-12-25T13:37:15.608Z,84.70
2018-12-25T13:39:43.933Z,84.30
2018-12-25T13:42:12.301Z,84.80
2018-12-25T13:44:40.703Z,84.10
2018-12-25T13:47:09.085Z,83.70
2018-12-25T13:49:37.382Z,83.90
2018-12-25T13:52:05.788Z,84.10
2018-12-25T13:54:34.154Z,83.40
2018-12-25T13:57:03.502Z,84.50
2018-12-25T13:59:31.873Z,85.80
2018-12-25T14:02:00.286Z,86.30
2018-12-25T14:04:28.651Z,86.30
2018-12-25T14:06:57.067Z,87.10
2018-12-25T14:09:25.465Z,86.50
2018-12-25T14:11:53.873Z,85.70
2018-12-25T14:14:22.174Z,85.70
2018-12-25T14:16:50.565Z,86.90
2018-12-25T14:19:18.940Z,86.40
2018-12-25T14:21:47.329Z,86.80
2018-12-25T14:24:15.706Z,86.30
2018-12-25T14:26:44.097Z,85.80
2018-12-25T14:29:12.398Z,85.90
2018-12-25T14:31:40.809Z,86.30
2018-12-25T14:34:09.191Z,86.30
2018-12-25T14:36:37.590Z,85.80
2018-12-25T14:39:07.208Z,85.70
2018-12-25T14:41:35.607Z,86.30
2018-12-25T14:44:05.414Z,86.80
2018-12-25T14:46:33.986Z,87.20
2018-12-25T14:49:02.369Z,86.30
2018-12-25T14:51:30.767Z,86.40
2018-12-25T14:53:59.133Z,86.70
2018-12-25T14:56:27.557Z,87.40
2018-12-25T14:58:55.850Z,88.00
2018-12-25T15:01:24.237Z,88.80
2018-12-25T15:03:52.530Z,89.00
2018-12-25T15:06:20.926Z,88.80
2018-12-25T15:08:49.294Z,88.80
2018-12-25T15:11:17.708Z,89.60
2018-12-25T15:13:46.168Z,88.50
2018-12-25T15:16:14.580Z,88.90
2018-12-25T15:18:42.906Z,87.60
2018-12-25T15:21:11.278Z,88.00
2018-12-25T15:23:39.606Z,87.50
2018-12-25T15:26:07.968Z,88.30
2018-12-25T15:28:36.365Z,87.50
2018-12-25T15:31:04.740Z,87.30
2018-12-25T15:33:33.141Z,87.30
2018-12-25T15:36:01.540Z,87.00
2018-12-25T15:38:29.942Z,86.80
2018-12-25T15:40:58.314Z,86.60
2018-12-25T15:43:26.714Z,86.10
2018-12-25T15:45:55.081Z,85.70
2018-12-25T15:48:23.559Z,85.90
2018-12-25T15:50:51.926Z,86.50
2018-12-25T15:53:20.326Z,86.00
2018-12-25T15:55:48.694Z,85.90
2018-12-25T15:58:18.151Z,87.20
2018-12-25T16:00:46.534Z,87.10
2018-12-25T16:03:14.912Z,86.10
2018-12-25T16:05:43.286Z,85.60
2018-12-25T16:08:11.678Z,85.30
2018-12-25T16:10:40.054Z,85.30
2018-12-25T16:13:08.450Z,85.40
2018-12-25T16:15:36.814Z,85.80
2018-12-25T16:18:05.206Z,85.70
2018-12-25T16:20:33.573Z,85.90
2018-12-25T16:23:02.091Z,86.00
2018-12-25T16:25:30.454Z,85.80
2018-12-25T16:27:58.862Z,85.40
2018-12-25T16:30:27.227Z,85.70
2018-12-25T16:32:55.642Z,84.70
2018-12-25T16:35:24.006Z,85.30
2018-12-25T16:37:52.402Z,84.40
2018-12-25T16:40:20.806Z,84.20
2018-12-25T16:42:49.180Z,83.90
2018-12-25T16:45:17.579Z,84.50
2018-12-25T16:47:46.042Z,83.50
2018-12-25T16:50:14.438Z,84.10
2018-12-25T16:52:42.790Z,84.30
2018-12-25T16:55:11.190Z,84.40
2018-12-25T16:57:39.559Z,83.20
2018-12-25T17:00:10.370Z,83.20
2018-12-25T17:02:38.747Z,82.50
2018-12-25T17:05:07.148Z,82.70
2018-12-25T17:07:35.520Z,82.90
2018-12-25T17:10:05.058Z,82.80
2018-12-25T17:12:33.433Z,82.50
2018-12-25T17:15:01.827Z,82.00
2018-12-25T17:17:30.195Z,82.80
2018-12-25T17:19:58.593Z,83.40
2018-12-25T17:22:26.892Z,83.80
2018-12-25T17:24:55.287Z,84.10
2018-12-25T17:27:23.675Z,83.50
2018-12-25T17:29:52.072Z,82.90
2018-12-25T17:32:20.437Z,82.30
2018-12-25T17:34:48.757Z,82.50
2018-12-25T17:37:17.133Z,81.90
2018-12-25T17:39:45.601Z,82.60
2018-12-25T17:42:13.897Z,82.10
2018-12-25T17:44:42.294Z,82.00
2018-12-25T17:47:10.657Z,82.20
2018-12-25T17:49:38.983Z,82.30
2018-12-25T17:52:07.345Z,81.80
2018-12-25T17:54:35.675Z,81.10
2018-12-25T17:57:04.097Z,81.30
2018-12-25T17:59:32.435Z,80.10
2018-12-25T18:02:00.811Z,79.80
2018-12-25T18:04:29.287Z,79.80
2018-12-25T18:06:57.654Z,80.40
2018-12-25T18:09:26.013Z,80.60
2018-12-25T18:11:54.411Z,79.90
2018-12-25T18:14:22.773Z,80.40
2018-12-25T18:16:51.171Z,79.80
2018-12-25T18:19:19.541Z,80.00
2018-12-25T18:21:47.869Z,79.30
2018-12-25T18:24:19.315Z,80.40
2018-12-25T18:26:46.275Z,80.30
2018-12-25T18:29:14.642Z,79.50
2018-12-25T18:31:43.055Z,80.50
2018-12-25T18:34:11.425Z,80.50
2018-12-25T18:36:39.797Z,80.50
2018-12-25T18:39:08.207Z,79.50
2018-12-25T18:41:36.573Z,80.50
2018-12-25T18:44:04.972Z,81.10
2018-12-25T18:46:33.334Z,80.10
2018-12-25T18:49:01.834Z,79.90
2018-12-25T18:51:30.205Z,79.80
2018-12-25T18:53:58.601Z,79.10
2018-12-25T18:56:26.983Z,78.90
2018-12-25T18:58:57.437Z,79.20
2018-12-25T19:01:26.960Z,79.10
2018-12-25T19:03:55.392Z,79.10
2018-12-25T19:06:23.781Z,79.70
2018-12-25T19:08:52.177Z,79.40
2018-12-25T19:11:20.545Z,79.70
2018-12-25T19:13:48.941Z,79.80
2018-12-25T19:16:17.237Z,80.10
2018-12-25T19:18:45.634Z,79.60
2018-12-25T19:21:13.926Z,79.40
2018-12-25T19:23:45.582Z,78.40
2018-12-25T19:26:13.949Z,78.00
2018-12-25T19:28:42.345Z,78.70
2018-12-25T19:31:10.637Z,78.20
2018-12-25T19:33:39.019Z,78.30
2018-12-25T19:36:07.385Z,77.30
2018-12-25T19:38:35.745Z,77.50
2018-12-25T19:41:04.078Z,77.40
2018-12-25T19:43:32.442Z,76.60
2018-12-25T19:46:00.854Z,76.40
2018-12-25T19:48:29.221Z,76.70
2018-12-25T19:50:57.543Z,76.80
2018-12-25T19:53:25.911Z,76.90
2018-12-25T19:55:54.311Z,76.70
2018-12-25T19:58:22.738Z,78.00
2018-12-25T20:00:51.137Z,77.40
2018-12-25T20:03:19.503Z,77.70
2018-12-25T20:06:09.315Z,77.60
2018-12-25T20:08:43.553Z,77.70
2018-12-25T20:11:24.213Z,77.40
2018-12-25T20:13:58.785Z,77.40
2018-12-25T20:16:39.077Z,78.40
2018-12-25T20:19:19.685Z,78.50
2018-12-25T20:22:07.758Z,78.90
2018-12-25T20:25:03.533Z,78.10
2018-12-25T20:27:44.036Z,77.20
2018-12-25T20:30:32.214Z,76.80
2018-12-25T20:33:19.180Z,77.40
2018-12-25T20:36:24.201Z,77.50
2018-12-25T20:42:56.069Z,77.70
2018-12-25T20:45:46.763Z,77.50
2018-12-25T20:48:36.421Z,76.90
2018-12-25T20:51:24.382Z,77.70
2018-12-25T20:53:58.902Z,77.60
2018-12-25T20:56:45.441Z,77.60
2018-12-25T20:59:28.918Z,76.90
2018-12-25T21:02:12.118Z,76.40
2018-12-25T21:04:55.850Z,76.30
2018-12-25T21:07:36.089Z,75.60
2018-12-25T21:10:28.566Z,75.30
2018-12-25T21:13:00.210Z,76.20
2018-12-25T21:15:59.680Z,75.70
2018-12-25T21:18:46.162Z,76.10
2018-12-25T21:21:29.583Z,76.30
2018-12-25T21:24:35.092Z,76.90
2018-12-25T21:27:31.038Z,76.00
2018-12-25T21:30:00.746Z,75.50
2018-12-25T21:32:30.250Z,75.60
2018-12-25T21:35:18.766Z,75.70
2018-12-25T21:37:47.166Z,76.00
2018-12-25T21:40:15.463Z,75.30
2018-12-25T21:42:43.863Z,75.80
2018-12-25T21:45:12.434Z,76.00
2018-12-25T21:47:41.333Z,75.70
2018-12-25T21:50:09.806Z,76.20
2018-12-25T21:52:38.364Z,76.20
2018-12-25T21:55:08.799Z,76.90
2018-12-25T21:57:37.534Z,76.50
2018-12-25T22:00:09.039Z,76.00
2018-12-25T22:02:37.482Z,77.70
2018-12-25T22:05:05.874Z,77.10
2018-12-25T22:07:34.252Z,76.80
2018-12-25T22:10:02.642Z,76.60
2018-12-25T22:12:31.057Z,76.70
2018-12-25T22:14:59.462Z,76.30
2018-12-25T22:17:27.838Z,76.10
2018-12-25T22:19:56.212Z,76.30
2018-12-25T22:22:24.610Z,76.30
2018-12-25T22:24:52.982Z,76.40
2018-12-25T22:27:21.386Z,75.60
2018-12-25T22:29:49.847Z,75.90
2018-12-25T22:32:18.250Z,76.40
2018-12-25T22:34:46.712Z,76.00
2018-12-25T22:37:15.109Z,76.80
2018-12-25T22:39:43.470Z,76.90
2018-12-25T22:42:11.794Z,77.70
2018-12-25T22:44:40.168Z,76.70
2018-12-25T22:47:08.570Z,77.50
2018-12-25T22:49:36.940Z,76.40
2018-12-25T22:52:05.378Z,76.50
2018-12-25T22:54:33.811Z,76.50
2018-12-25T22:57:02.189Z,77.00
2018-12-25T22:59:30.627Z,76.60
2018-12-25T23:01:58.994Z,76.50
2018-12-25T23:04:27.396Z,76.90
2018-12-25T23:06:55.784Z,76.40
2018-12-25T23:09:24.252Z,76.80
2018-12-25T23:11:52.784Z,77.00
2018-12-25T23:14:21.114Z,76.50
2018-12-25T23:16:49.489Z,76.50
2018-12-25T23:19:18.083Z,76.10
2018-12-25T23:21:46.455Z,76.30
2018-12-25T23:24:14.853Z,76.50
2018-12-25T23:26:43.268Z,76.20
2018-12-25T23:29:11.646Z,76.60
2018-12-25T23:31:40.047Z,76.30
2018-12-25T23:34:08.459Z,75.90
2018-12-25T23:36:36.855Z,76.30
2018-12-25T23:39:06.869Z,75.40
2018-12-25T23:41:35.434Z,75.70
2018-12-25T23:44:03.804Z,76.60
2018-12-25T23:46:32.202Z,76.00
2018-12-25T23:49:00.579Z,76.30
2018-12-25T23:51:28.984Z,75.40
2018-12-25T23:53:57.346Z,75.50
2018-12-25T23:56:25.746Z,75.50
2018-12-25T23:58:54.220Z,75.50
